sensor_id;sensor_type;location;lat;lon;timestamp;pressure;altitude;pressure_sealevel;temperature;humidity
75867;BME280;64513;56.258;43.980;2023-01-05T00:01:11;98735.88;;;2.80;65.73
75867;BME280;64513;56.258;43.980;2023-01-05T00:03:36;98730.91;;;2.79;65.76
75867;BME280;64513;56.258;43.980;2023-01-05T00:06:37;98731.45;;;2.81;65.84
75867;BME280;64513;56.258;43.980;2023-01-05T00:08:27;98723.61;;;2.81;65.87
75867;BME280;64513;56.258;43.980;2023-01-05T00:10:52;98721.80;;;2.81;65.76
75867;BME280;64513;56.258;43.980;2023-01-05T00:13:36;98728.59;;;2.83;65.85
75867;BME280;64513;56.258;43.980;2023-01-05T00:16:20;98717.36;;;2.82;65.82
75867;BME280;64513;56.258;43.980;2023-01-05T00:19:03;98707.70;;;2.83;65.86
75867;BME280;64513;56.258;43.980;2023-01-05T00:21:48;98709.77;;;2.80;65.77
75867;BME280;64513;56.258;43.980;2023-01-05T00:24:32;98703.77;;;2.80;65.84
75867;BME280;64513;56.258;43.980;2023-01-05T00:26:56;98703.77;;;2.80;65.83
75867;BME280;64513;56.258;43.980;2023-01-05T00:29:20;98703.77;;;2.80;65.90
75867;BME280;64513;56.258;43.980;2023-01-05T00:31:44;98688.10;;;2.80;65.81
75867;BME280;64513;56.258;43.980;2023-01-05T00:34:08;98687.06;;;2.81;65.82
75867;BME280;64513;56.258;43.980;2023-01-05T00:36:32;98686.03;;;2.82;65.76
75867;BME280;64513;56.258;43.980;2023-01-05T00:38:57;98674.55;;;2.83;65.85
75867;BME280;64513;56.258;43.980;2023-01-05T00:41:21;98680.28;;;2.85;65.80
75867;BME280;64513;56.258;43.980;2023-01-05T00:43:45;98682.89;;;2.85;65.82
75867;BME280;64513;56.258;43.980;2023-01-05T00:46:09;98675.59;;;2.87;65.81
75867;BME280;64513;56.258;43.980;2023-01-05T00:48:34;98663.33;;;2.88;65.76
75867;BME280;64513;56.258;43.980;2023-01-05T00:50:58;98664.12;;;2.88;65.80
75867;BME280;64513;56.258;43.980;2023-01-05T00:53:22;98669.34;;;2.88;65.80
75867;BME280;64513;56.258;43.980;2023-01-05T00:58:33;98654.46;;;2.89;65.70
75867;BME280;64513;56.258;43.980;2023-01-05T01:00:57;98647.41;;;2.89;65.67
75867;BME280;64513;56.258;43.980;2023-01-05T01:03:21;98649.23;;;2.89;65.64
75867;BME280;64513;56.258;43.980;2023-01-05T01:05:50;98642.98;;;2.90;65.76
75867;BME280;64513;56.258;43.980;2023-01-05T01:08:11;98640.38;;;2.90;65.80
75867;BME280;64513;56.258;43.980;2023-01-05T01:11:10;98642.73;;;2.91;65.74
75867;BME280;64513;56.258;43.980;2023-01-05T01:13:02;98637.51;;;2.91;65.73
75867;BME280;64513;56.258;43.980;2023-01-05T01:15:27;98628.64;;;2.92;65.69
75867;BME280;64513;56.258;43.980;2023-01-05T01:17:51;98633.86;;;2.92;65.69
75867;BME280;64513;56.258;43.980;2023-01-05T01:20:15;98624.98;;;2.93;65.75
75867;BME280;64513;56.258;43.980;2023-01-05T01:22:39;98619.77;;;2.93;65.76
75867;BME280;64513;56.258;43.980;2023-01-05T01:25:04;98626.56;;;2.94;65.77
75867;BME280;64513;56.258;43.980;2023-01-05T01:27:30;98623.95;;;2.94;65.76
75867;BME280;64513;56.258;43.980;2023-01-05T01:29:54;98624.48;;;2.96;65.76
75867;BME280;64513;56.258;43.980;2023-01-05T01:32:18;98619.27;;;2.96;65.77
75867;BME280;64513;56.258;43.980;2023-01-05T01:34:44;98631.28;;;2.97;65.79
75867;BME280;64513;56.258;43.980;2023-01-05T01:37:08;98631.28;;;2.97;65.81
75867;BME280;64513;56.258;43.980;2023-01-05T01:39:33;98624.48;;;2.96;65.79
75867;BME280;64513;56.258;43.980;2023-01-05T01:41:57;98622.41;;;2.98;65.79
75867;BME280;64513;56.258;43.980;2023-01-05T01:53:19;98602.56;;;2.97;65.64
75867;BME280;64513;56.258;43.980;2023-01-05T01:55:43;98596.80;;;2.95;65.76
75867;BME280;64513;56.258;43.980;2023-01-05T01:58:10;98591.58;;;2.95;65.78
75867;BME280;64513;56.258;43.980;2023-01-05T02:00:37;98591.58;;;2.95;65.84
75867;BME280;64513;56.258;43.980;2023-01-05T02:03:01;98588.72;;;2.97;65.88
75867;BME280;64513;56.258;43.980;2023-01-05T02:05:28;98591.08;;;2.98;65.75
75867;BME280;64513;56.258;43.980;2023-01-05T02:07:54;98590.54;;;3.01;65.75
75867;BME280;64513;56.258;43.980;2023-01-05T02:10:23;98583.75;;;3.00;65.73
75867;BME280;64513;56.258;43.980;2023-01-05T02:13:43;98574.88;;;3.01;65.74
75867;BME280;64513;56.258;43.980;2023-01-05T02:47:46;98558.95;;;2.98;65.85
75867;BME280;64513;56.258;43.980;2023-01-05T02:59:08;98547.97;;;3.01;65.79
75867;BME280;64513;56.258;43.980;2023-01-05T03:01:53;98549.55;;;3.02;65.79
75867;BME280;64513;56.258;43.980;2023-01-05T03:09:48;98541.45;;;3.03;65.75
75867;BME280;64513;56.258;43.980;2023-01-05T03:12:33;98538.59;;;3.05;65.79
75867;BME280;64513;56.258;43.980;2023-01-05T03:15:38;98534.16;;;3.05;65.81
75867;BME280;64513;56.258;43.980;2023-01-05T03:18:22;98536.52;;;3.07;65.71
75867;BME280;64513;56.258;43.980;2023-01-05T03:20:49;98537.55;;;3.06;65.70
75867;BME280;64513;56.258;43.980;2023-01-05T03:23:16;98550.36;;;3.07;65.74
75867;BME280;64513;56.258;43.980;2023-01-05T03:26:01;98544.09;;;3.08;65.75
75867;BME280;64513;56.258;43.980;2023-01-05T03:29:05;98536.26;;;3.08;65.71
75867;BME280;64513;56.258;43.980;2023-01-05T03:32:13;98529.99;;;3.09;65.72
75867;BME280;64513;56.258;43.980;2023-01-05T03:35:17;98529.99;;;3.09;65.63
75867;BME280;64513;56.258;43.980;2023-01-05T03:40:29;98526.85;;;3.07;65.64
75867;BME280;64513;56.258;43.980;2023-01-05T03:42:54;98525.03;;;3.08;65.71
75867;BME280;64513;56.258;43.980;2023-01-05T03:45:19;98520.59;;;3.08;65.75
75867;BME280;64513;56.258;43.980;2023-01-05T03:47:44;98517.72;;;3.10;65.74
75867;BME280;64513;56.258;43.980;2023-01-05T03:50:10;98517.47;;;3.11;65.70
75867;BME280;64513;56.258;43.980;2023-01-05T03:52:34;98524.27;;;3.12;65.69
75867;BME280;64513;56.258;43.980;2023-01-05T03:54:58;98520.61;;;3.13;65.59
75867;BME280;64513;56.258;43.980;2023-01-05T03:57:22;98517.46;;;3.16;65.54
75867;BME280;64513;56.258;43.980;2023-01-05T03:59:46;98519.03;;;3.17;65.44
75867;BME280;64513;56.258;43.980;2023-01-05T04:02:10;98515.37;;;3.18;65.41
75867;BME280;64513;56.258;43.980;2023-01-05T04:04:34;98511.72;;;3.20;65.37
75867;BME280;64513;56.258;43.980;2023-01-05T04:06:59;98516.44;;;3.23;65.31
75867;BME280;64513;56.258;43.980;2023-01-05T04:09:23;98513.04;;;3.22;65.31
75867;BME280;64513;56.258;43.980;2023-01-05T04:11:47;98507.81;;;3.22;65.28
75867;BME280;64513;56.258;43.980;2023-01-05T04:14:11;98510.17;;;3.24;65.21
75867;BME280;64513;56.258;43.980;2023-01-05T04:16:35;98511.74;;;3.25;65.15
75867;BME280;64513;56.258;43.980;2023-01-05T04:18:59;98505.48;;;3.26;65.11
75867;BME280;64513;56.258;43.980;2023-01-05T04:21:24;98506.52;;;3.25;65.06
75867;BME280;64513;56.258;43.980;2023-01-05T04:23:48;98502.08;;;3.25;65.04
75867;BME280;64513;56.258;43.980;2023-01-05T04:26:12;98497.64;;;3.26;65.08
75867;BME280;64513;56.258;43.980;2023-01-05T04:28:36;98497.64;;;3.26;65.01
75867;BME280;64513;56.258;43.980;2023-01-05T04:31:00;98490.84;;;3.25;64.96
75867;BME280;64513;56.258;43.980;2023-01-05T04:33:25;98497.64;;;3.26;65.00
75867;BME280;64513;56.258;43.980;2023-01-05T04:35:49;98485.36;;;3.26;64.97
75867;BME280;64513;56.258;43.980;2023-01-05T04:38:13;98487.19;;;3.26;64.90
75867;BME280;64513;56.258;43.980;2023-01-05T04:40:38;98489.02;;;3.25;64.97
75867;BME280;64513;56.258;43.980;2023-01-05T04:43:02;98485.62;;;3.25;65.00
75867;BME280;64513;56.258;43.980;2023-01-05T04:45:27;98482.22;;;3.24;64.94
75867;BME280;64513;56.258;43.980;2023-01-05T04:47:51;98477.78;;;3.25;64.93
75867;BME280;64513;56.258;43.980;2023-01-05T04:50:15;98486.66;;;3.24;64.92
75867;BME280;64513;56.258;43.980;2023-01-05T04:52:40;98489.27;;;3.24;64.94
75867;BME280;64513;56.258;43.980;2023-01-05T04:55:05;98488.23;;;3.25;64.90
75867;BME280;64513;56.258;43.980;2023-01-05T04:57:29;98484.84;;;3.24;64.92
75867;BME280;64513;56.258;43.980;2023-01-05T04:59:53;98476.21;;;3.24;64.91
75867;BME280;64513;56.258;43.980;2023-01-05T05:02:17;98484.05;;;3.24;64.85
75867;BME280;64513;56.258;43.980;2023-01-05T05:04:41;98477.78;;;3.25;64.83
75867;BME280;64513;56.258;43.980;2023-01-05T05:07:06;98477.00;;;3.24;64.80
75867;BME280;64513;56.258;43.980;2023-01-05T05:09:30;98484.84;;;3.24;64.79
75867;BME280;64513;56.258;43.980;2023-01-05T05:11:54;98486.66;;;3.24;64.81
75867;BME280;64513;56.258;43.980;2023-01-05T05:14:18;98484.84;;;3.24;64.80
75867;BME280;64513;56.258;43.980;2023-01-05T05:16:42;98478.83;;;3.24;64.81
75867;BME280;64513;56.258;43.980;2023-01-05T05:19:07;98486.66;;;3.24;64.73
75867;BME280;64513;56.258;43.980;2023-01-05T05:21:31;98491.89;;;3.24;64.72
75867;BME280;64513;56.258;43.980;2023-01-05T05:23:56;98492.92;;;3.23;64.74
75867;BME280;64513;56.258;43.980;2023-01-05T05:26:20;98499.72;;;3.24;64.71
75867;BME280;64513;56.258;43.980;2023-01-05T05:28:44;98492.92;;;3.23;64.76
75867;BME280;64513;56.258;43.980;2023-01-05T05:31:08;98498.94;;;3.23;64.70
75867;BME280;64513;56.258;43.980;2023-01-05T05:33:32;98500.77;;;3.23;64.67
75867;BME280;64513;56.258;43.980;2023-01-05T05:35:58;98499.72;;;3.24;64.66
75867;BME280;64513;56.258;43.980;2023-01-05T05:38:22;98498.16;;;3.23;64.68
75867;BME280;64513;56.258;43.980;2023-01-05T05:41:06;98504.16;;;3.23;64.62
75867;BME280;64513;56.258;43.980;2023-01-05T05:43:30;98503.38;;;3.23;64.69
75867;BME280;64513;56.258;43.980;2023-01-05T05:45:55;98501.55;;;3.23;64.65
75867;BME280;64513;56.258;43.980;2023-01-05T05:48:19;98504.42;;;3.22;64.59
75867;BME280;64513;56.258;43.980;2023-01-05T05:50:44;98504.42;;;3.22;64.59
75867;BME280;64513;56.258;43.980;2023-01-05T05:53:08;98504.42;;;3.22;64.50
75867;BME280;64513;56.258;43.980;2023-01-05T05:55:33;98502.59;;;3.22;64.52
75867;BME280;64513;56.258;43.980;2023-01-05T05:57:57;98513.04;;;3.22;64.44
75867;BME280;64513;56.258;43.980;2023-01-05T06:00:21;98513.04;;;3.22;64.45
75867;BME280;64513;56.258;43.980;2023-01-05T06:02:46;98501.80;;;3.22;64.41
75867;BME280;64513;56.258;43.980;2023-01-05T06:05:10;98503.38;;;3.23;64.38
75867;BME280;64513;56.258;43.980;2023-01-05T06:07:34;98512.25;;;3.22;64.38
75867;BME280;64513;56.258;43.980;2023-01-05T06:09:58;98497.37;;;3.22;64.29
75867;BME280;64513;56.258;43.980;2023-01-05T06:12:22;98507.03;;;3.22;64.26
75867;BME280;64513;56.258;43.980;2023-01-05T06:14:46;98505.20;;;3.22;64.28
75867;BME280;64513;56.258;43.980;2023-01-05T06:17:11;98505.45;;;3.21;64.29
75867;BME280;64513;56.258;43.980;2023-01-05T06:19:36;98510.69;;;3.21;64.18
75867;BME280;64513;56.258;43.980;2023-01-05T06:22:00;98489.00;;;3.20;64.10
75867;BME280;64513;56.258;43.980;2023-01-05T06:24:25;98501.02;;;3.21;64.03
75867;BME280;64513;56.258;43.980;2023-01-05T06:26:49;98504.42;;;3.22;63.97
75867;BME280;64513;56.258;43.980;2023-01-05T06:29:13;98496.58;;;3.22;64.03
75867;BME280;64513;56.258;43.980;2023-01-05T06:31:37;98494.75;;;3.22;63.99
75867;BME280;64513;56.258;43.980;2023-01-05T06:34:01;98496.58;;;3.22;63.91
75867;BME280;64513;56.258;43.980;2023-01-05T06:36:25;98496.58;;;3.22;63.91
75867;BME280;64513;56.258;43.980;2023-01-05T06:38:49;98503.38;;;3.23;63.85
75867;BME280;64513;56.258;43.980;2023-01-05T06:41:14;98513.83;;;3.23;63.84
75867;BME280;64513;56.258;43.980;2023-01-05T06:43:38;98507.81;;;3.22;63.80
75867;BME280;64513;56.258;43.980;2023-01-05T06:46:02;98503.38;;;3.23;63.72
75867;BME280;64513;56.258;43.980;2023-01-05T06:48:26;98521.66;;;3.23;63.67
75867;BME280;64513;56.258;43.980;2023-01-05T06:50:50;98517.48;;;3.22;63.66
75867;BME280;64513;56.258;43.980;2023-01-05T06:53:15;98513.04;;;3.22;63.51
75867;BME280;64513;56.258;43.980;2023-01-05T06:55:39;98519.05;;;3.23;63.51
75867;BME280;64513;56.258;43.980;2023-01-05T06:58:03;98521.66;;;3.23;63.53
75867;BME280;64513;56.258;43.980;2023-01-05T07:00:28;98520.88;;;3.22;63.50
75867;BME280;64513;56.258;43.980;2023-01-05T07:02:52;98521.92;;;3.21;63.41
75867;BME280;64513;56.258;43.980;2023-01-05T07:05:16;98518.27;;;3.22;63.38
75867;BME280;64513;56.258;43.980;2023-01-05T07:07:41;98521.13;;;3.21;63.37
75867;BME280;64513;56.258;43.980;2023-01-05T07:10:06;98515.91;;;3.21;63.35
75867;BME280;64513;56.258;43.980;2023-01-05T07:12:30;98517.73;;;3.20;63.37
75867;BME280;64513;56.258;43.980;2023-01-05T07:14:54;98525.57;;;3.20;63.36
75867;BME280;64513;56.258;43.980;2023-01-05T07:17:18;98528.19;;;3.20;63.21
75867;BME280;64513;56.258;43.980;2023-01-05T07:19:44;98529.22;;;3.19;63.20
75867;BME280;64513;56.258;43.980;2023-01-05T07:22:08;98526.86;;;3.17;63.17
75867;BME280;64513;56.258;43.980;2023-01-05T07:24:33;98532.63;;;3.20;63.09
75867;BME280;64513;56.258;43.980;2023-01-05T07:27:17;98534.20;;;3.21;62.99
75867;BME280;64513;56.258;43.980;2023-01-05T07:29:41;98527.93;;;3.22;62.89
75867;BME280;64513;56.258;43.980;2023-01-05T07:32:05;98533.16;;;3.22;62.77
75867;BME280;64513;56.258;43.980;2023-01-05T07:34:29;98529.50;;;3.23;62.74
75867;BME280;64513;56.258;43.980;2023-01-05T07:36:53;98533.69;;;3.24;62.77
75867;BME280;64513;56.258;43.980;2023-01-05T07:39:18;98530.56;;;3.27;62.73
75867;BME280;64513;56.258;43.980;2023-01-05T07:41:42;98534.48;;;3.29;62.69
75867;BME280;64513;56.258;43.980;2023-01-05T07:44:07;98531.08;;;3.34;62.68
75867;BME280;64513;56.258;43.980;2023-01-05T07:46:32;98523.79;;;3.41;62.55
75867;BME280;64513;56.258;43.980;2023-01-05T07:48:56;98522.23;;;3.45;62.49
75867;BME280;64513;56.258;43.980;2023-01-05T07:51:20;98537.13;;;3.44;62.58
75867;BME280;64513;56.258;43.980;2023-01-05T07:53:44;98532.94;;;3.43;62.54
75867;BME280;64513;56.258;43.980;2023-01-05T07:56:09;98528.24;;;3.45;62.49
75867;BME280;64513;56.258;43.980;2023-01-05T07:58:34;98530.08;;;3.45;62.44
75867;BME280;64513;56.258;43.980;2023-01-05T08:03:44;98535.80;;;3.47;62.34
75867;BME280;64513;56.258;43.980;2023-01-05T08:06:10;98535.28;;;3.50;62.16
75867;BME280;64513;56.258;43.980;2023-01-05T08:08:35;98538.42;;;3.52;62.14
75867;BME280;64513;56.258;43.980;2023-01-05T08:11:02;98537.40;;;3.58;62.03
75867;BME280;64513;56.258;43.980;2023-01-05T08:13:25;98533.21;;;3.67;61.92
75867;BME280;64513;56.258;43.980;2023-01-05T08:16:09;98536.09;;;3.71;61.78
75867;BME280;64513;56.258;43.980;2023-01-05T08:18:33;98527.99;;;3.72;61.79
75867;BME280;64513;56.258;43.980;2023-01-05T08:20:59;98524.85;;;3.70;61.78
75867;BME280;64513;56.258;43.980;2023-01-05T08:23:26;98535.84;;;3.72;61.73
75867;BME280;64513;56.258;43.980;2023-01-05T08:25:50;98535.06;;;3.77;61.61
75867;BME280;64513;56.258;43.980;2023-01-05T08:28:14;98526.93;;;3.78;61.48
75867;BME280;64513;56.258;43.980;2023-01-05T08:30:39;98531.64;;;3.81;61.39
75867;BME280;64513;56.258;43.980;2023-01-05T08:33:03;98523.28;;;3.84;61.30
75867;BME280;64513;56.258;43.980;2023-01-05T08:35:28;98522.23;;;3.85;61.22
75867;BME280;64513;56.258;43.980;2023-01-05T08:37:52;98523.80;;;3.86;61.18
75867;BME280;64513;56.258;43.980;2023-01-05T08:40:16;98519.36;;;3.87;61.12
75867;BME280;64513;56.258;43.980;2023-01-05T08:42:40;98521.19;;;3.86;61.08
75867;BME280;64513;56.258;43.980;2023-01-05T08:45:07;98514.91;;;3.87;61.08
75867;BME280;64513;56.258;43.980;2023-01-05T08:47:31;98520.15;;;3.87;60.99
75867;BME280;64513;56.258;43.980;2023-01-05T08:49:55;98521.72;;;3.88;60.96
75867;BME280;64513;56.258;43.980;2023-01-05T08:52:19;98522.50;;;3.89;60.92
75867;BME280;64513;56.258;43.980;2023-01-05T08:55:04;98523.29;;;3.90;60.87
75867;BME280;64513;56.258;43.980;2023-01-05T08:57:29;98512.30;;;3.87;60.90
75867;BME280;64513;56.258;43.980;2023-01-05T08:59:54;98511.25;;;3.88;60.92
75867;BME280;64513;56.258;43.980;2023-01-05T09:02:18;98513.35;;;3.92;60.89
75867;BME280;64513;56.258;43.980;2023-01-05T09:04:42;98516.20;;;3.95;60.80
75867;BME280;64513;56.258;43.980;2023-01-05T09:07:06;98497.64;;;3.97;60.77
75867;BME280;64513;56.258;43.980;2023-01-05T09:09:30;98503.91;;;4.01;60.70
75867;BME280;64513;56.258;43.980;2023-01-05T09:11:54;98504.70;;;4.01;60.64
75867;BME280;64513;56.258;43.980;2023-01-05T09:14:18;98504.96;;;4.05;60.55
75867;BME280;64513;56.258;43.980;2023-01-05T09:16:43;98512.55;;;4.06;60.53
75867;BME280;64513;56.258;43.980;2023-01-05T09:19:09;98502.88;;;4.07;60.51
75867;BME280;64513;56.258;43.980;2023-01-05T09:21:33;98506.27;;;4.07;60.47
75867;BME280;64513;56.258;43.980;2023-01-05T09:23:59;98506.01;;;4.09;60.48
75867;BME280;64513;56.258;43.980;2023-01-05T09:26:23;98507.55;;;4.10;60.47
75867;BME280;64513;56.258;43.980;2023-01-05T09:28:47;98502.31;;;4.10;60.44
75867;BME280;64513;56.258;43.980;2023-01-05T09:31:14;98508.63;;;4.09;60.40
75867;BME280;64513;56.258;43.980;2023-01-05T09:33:39;98508.10;;;4.07;60.43
75867;BME280;64513;56.258;43.980;2023-01-05T09:36:04;98515.42;;;4.05;60.44
75867;BME280;64513;56.258;43.980;2023-01-05T09:38:28;98503.39;;;4.04;60.14
75867;BME280;64513;56.258;43.980;2023-01-05T09:40:54;98504.94;;;4.10;62.53
75867;BME280;64513;56.258;43.980;2023-01-05T09:48:54;98501.80;;;4.13;61.20
75867;BME280;64513;56.258;43.980;2023-01-05T09:51:18;98509.64;;;4.13;60.88
75867;BME280;64513;56.258;43.980;2023-01-05T09:53:42;98499.70;;;4.10;60.68
75867;BME280;64513;56.258;43.980;2023-01-05T09:58:52;98511.23;;;4.04;60.49
75867;BME280;64513;56.258;43.980;2023-01-05T10:01:18;98495.55;;;3.99;60.46
75867;BME280;64513;56.258;43.980;2023-01-05T10:06:32;98506.53;;;3.96;60.33
75867;BME280;64513;56.258;43.980;2023-01-05T10:08:59;98501.55;;;3.94;60.28
75867;BME280;64513;56.258;43.980;2023-01-05T10:17:48;98505.50;;;3.86;60.08
75867;BME280;64513;56.258;43.980;2023-01-05T10:19:42;98493.73;;;3.84;60.04
75867;BME280;64513;56.258;43.980;2023-01-05T10:33:49;98496.08;;;3.80;59.85
75867;BME280;64513;56.258;43.980;2023-01-05T10:36:35;98503.92;;;3.80;59.85
75867;BME280;64513;56.258;43.980;2023-01-05T10:42:07;98500.00;;;3.78;59.83
75867;BME280;64513;56.258;43.980;2023-01-05T10:47:36;98497.15;;;3.74;59.86
75867;BME280;64513;56.258;43.980;2023-01-05T10:50:02;98496.62;;;3.72;59.80
75867;BME280;64513;56.258;43.980;2023-01-05T10:52:27;98496.09;;;3.70;59.80
75867;BME280;64513;56.258;43.980;2023-01-05T10:55:14;98491.91;;;3.69;59.72
75867;BME280;64513;56.258;43.980;2023-01-05T10:57:39;98491.39;;;3.72;59.72
75867;BME280;64513;56.258;43.980;2023-01-05T11:00:37;98498.19;;;3.73;59.65
75867;BME280;64513;56.258;43.980;2023-01-05T11:03:12;98498.70;;;3.70;59.68
75867;BME280;64513;56.258;43.980;2023-01-05T11:05:55;98496.61;;;3.67;59.68
75867;BME280;64513;56.258;43.980;2023-01-05T11:08:21;98507.06;;;3.62;59.70
75867;BME280;64513;56.258;43.980;2023-01-05T11:11:06;98502.38;;;3.59;59.82
75867;BME280;64513;56.258;43.980;2023-01-05T11:16:35;98494.52;;;3.54;59.88
75867;BME280;64513;56.258;43.980;2023-01-05T11:19:01;98499.48;;;3.50;59.98
75867;BME280;64513;56.258;43.980;2023-01-05T11:24:32;98495.55;;;3.48;60.04
75867;BME280;64513;56.258;43.980;2023-01-05T11:27:00;98502.61;;;3.47;60.00
75867;BME280;64513;56.258;43.980;2023-01-05T11:29:26;98489.30;;;3.44;60.00
75867;BME280;64513;56.258;43.980;2023-01-05T11:32:11;98491.39;;;3.42;60.05
75867;BME280;64513;56.258;43.980;2023-01-05T11:34:55;98493.48;;;3.40;60.04
75867;BME280;64513;56.258;43.980;2023-01-05T11:37:42;98490.33;;;3.38;60.04
75867;BME280;64513;56.258;43.980;2023-01-05T11:40:13;98493.46;;;3.35;60.17
75867;BME280;64513;56.258;43.980;2023-01-05T11:42:51;98491.36;;;3.32;60.10
75867;BME280;64513;56.258;43.980;2023-01-05T11:48:41;98493.98;;;3.27;60.10
75867;BME280;64513;56.258;43.980;2023-01-05T11:51:05;98490.84;;;3.25;59.96
75867;BME280;64513;56.258;43.980;2023-01-05T11:53:49;98489.27;;;3.24;59.96
75867;BME280;64513;56.258;43.980;2023-01-05T11:56:34;98486.13;;;3.22;59.96
75867;BME280;64513;56.258;43.980;2023-01-05T11:58:58;98488.22;;;3.20;59.91
75867;BME280;64513;56.258;43.980;2023-01-05T12:04:31;98499.17;;;3.16;59.69
75867;BME280;64513;56.258;43.980;2023-01-05T12:47:12;98530.09;;;2.62;59.32
75867;BME280;64513;56.258;43.980;2023-01-05T12:52:24;98526.66;;;2.57;59.26
75867;BME280;64513;56.258;43.980;2023-01-05T12:54:52;98528.73;;;2.55;59.24
75867;BME280;64513;56.258;43.980;2023-01-05T12:58:12;98515.15;;;2.53;59.23
75867;BME280;64513;56.258;43.980;2023-01-05T13:00:22;98518.83;;;2.52;59.21
75867;BME280;64513;56.258;43.980;2023-01-05T13:08:40;98526.05;;;2.39;59.07
75867;BME280;64513;56.258;43.980;2023-01-05T13:13:53;98525.25;;;2.34;59.11
75867;BME280;64513;56.258;43.980;2023-01-05T13:22:30;98532.75;;;2.25;58.99
75867;BME280;64513;56.258;43.980;2023-01-05T13:27:40;98544.99;;;2.20;59.00
75867;BME280;64513;56.258;43.980;2023-01-05T13:30:05;98535.30;;;2.15;58.96
75867;BME280;64513;56.258;43.980;2023-01-05T14:01:42;98523.88;;;1.84;59.07
75867;BME280;64513;56.258;43.980;2023-01-05T14:07:13;98526.98;;;1.81;59.03
75867;BME280;64513;56.258;43.980;2023-01-05T14:19:14;98539.96;;;1.76;58.96
75867;BME280;64513;56.258;43.980;2023-01-05T14:24:24;98531.88;;;1.72;58.97
75867;BME280;64513;56.258;43.980;2023-01-05T14:29:59;98536.55;;;1.70;59.03
75867;BME280;64513;56.258;43.980;2023-01-05T14:32:45;98542.79;;;1.69;58.96
75867;BME280;64513;56.258;43.980;2023-01-05T14:41:04;98544.06;;;1.67;58.86
75867;BME280;64513;56.258;43.980;2023-01-05T14:46:53;98550.55;;;1.64;58.88
75867;BME280;64513;56.258;43.980;2023-01-05T15:45:35;98562.66;;;1.22;57.86
75867;BME280;64513;56.258;43.980;2023-01-05T15:48:04;98571.98;;;1.18;57.74
75867;BME280;64513;56.258;43.980;2023-01-05T15:50:33;98565.20;;;1.17;57.76
75867;BME280;64513;56.258;43.980;2023-01-05T15:52:58;98570.41;;;1.17;57.68
75867;BME280;64513;56.258;43.980;2023-01-05T15:55:24;98565.20;;;1.17;57.71
75867;BME280;64513;56.258;43.980;2023-01-05T16:01:14;98570.41;;;1.17;57.54
75867;BME280;64513;56.258;43.980;2023-01-05T16:03:40;98568.04;;;1.15;57.48
75867;BME280;64513;56.258;43.980;2023-01-05T16:06:25;98577.12;;;1.13;57.47
75867;BME280;64513;56.258;43.980;2023-01-05T16:08:54;98571.36;;;1.11;57.42
75867;BME280;64513;56.258;43.980;2023-01-05T16:11:39;98563.83;;;1.09;57.38
75867;BME280;64513;56.258;43.980;2023-01-05T16:14:25;98560.44;;;1.09;57.37
75867;BME280;64513;56.258;43.980;2023-01-05T16:16:51;98558.31;;;1.05;57.29
75867;BME280;64513;56.258;43.980;2023-01-05T16:19:38;98569.20;;;1.02;57.16
75867;BME280;64513;56.258;43.980;2023-01-05T16:25:26;98558.72;;;0.97;57.11
75867;BME280;64513;56.258;43.980;2023-01-05T16:28:25;98565.98;;;0.95;57.07
75867;BME280;64513;56.258;43.980;2023-01-05T16:30:40;98563.89;;;0.92;56.97
75867;BME280;64513;56.258;43.980;2023-01-05T16:38:38;98580.46;;;0.86;56.87
75867;BME280;64513;56.258;43.980;2023-01-05T16:41:05;98580.16;;;0.83;56.69
75867;BME280;64513;56.258;43.980;2023-01-05T16:49:40;98585.55;;;0.76;56.66
75867;BME280;64513;56.258;43.980;2023-01-05T16:52:06;98586.03;;;0.73;56.63
75867;BME280;64513;56.258;43.980;2023-01-05T17:00:40;98589.58;;;0.67;56.49
75867;BME280;64513;56.258;43.980;2023-01-05T17:06:29;98596.78;;;0.60;56.45
75867;BME280;64513;56.258;43.980;2023-01-05T17:08:56;98602.46;;;0.57;56.39
75867;BME280;64513;56.258;43.980;2023-01-05T17:11:21;98592.77;;;0.52;56.43
75867;BME280;64513;56.258;43.980;2023-01-05T17:14:05;98598.20;;;0.51;56.46
75867;BME280;64513;56.258;43.980;2023-01-05T17:16:30;98589.84;;;0.49;56.44
75867;BME280;64513;56.258;43.980;2023-01-05T17:18:54;98596.07;;;0.48;56.37
75867;BME280;64513;56.258;43.980;2023-01-05T17:21:20;98591.92;;;0.47;56.36
75867;BME280;64513;56.258;43.980;2023-01-05T17:24:05;98585.15;;;0.46;56.24
75867;BME280;64513;56.258;43.980;2023-01-05T17:27:01;98588.77;;;0.45;56.22
75867;BME280;64513;56.258;43.980;2023-01-05T17:28:58;98592.40;;;0.44;56.25
75867;BME280;64513;56.258;43.980;2023-01-05T17:31:24;98599.65;;;0.42;56.20
75867;BME280;64513;56.258;43.980;2023-01-05T17:33:48;98598.07;;;0.41;56.11
75867;BME280;64513;56.258;43.980;2023-01-05T17:36:12;98599.09;;;0.40;55.99
75867;BME280;64513;56.258;43.980;2023-01-05T17:38:37;98600.91;;;0.39;55.99
75867;BME280;64513;56.258;43.980;2023-01-05T17:41:01;98603.73;;;0.38;55.97
75867;BME280;64513;56.258;43.980;2023-01-05T17:43:25;98601.38;;;0.36;55.95
75867;BME280;64513;56.258;43.980;2023-01-05T17:45:49;98616.19;;;0.35;55.80
75867;BME280;64513;56.258;43.980;2023-01-05T17:48:14;98601.61;;;0.34;55.86
75867;BME280;64513;56.258;43.980;2023-01-05T17:50:38;98602.64;;;0.33;55.77
75867;BME280;64513;56.258;43.980;2023-01-05T17:53:03;98611.72;;;0.31;55.70
75867;BME280;64513;56.258;43.980;2023-01-05T17:55:29;98614.55;;;0.29;55.66
75867;BME280;64513;56.258;43.980;2023-01-05T17:57:53;98625.98;;;0.28;55.55
75867;BME280;64513;56.258;43.980;2023-01-05T18:00:38;98623.14;;;0.30;55.56
75867;BME280;64513;56.258;43.980;2023-01-05T18:03:04;98622.36;;;0.29;55.52
75867;BME280;64513;56.258;43.980;2023-01-05T18:05:30;98618.18;;;0.28;55.52
75867;BME280;64513;56.258;43.980;2023-01-05T18:07:54;98615.26;;;0.25;55.68
75867;BME280;64513;56.258;43.980;2023-01-05T18:10:38;98616.28;;;0.24;55.56
75867;BME280;64513;56.258;43.980;2023-01-05T18:13:03;98617.07;;;0.24;55.55
75867;BME280;64513;56.258;43.980;2023-01-05T18:15:28;98614.94;;;0.21;55.55